F/V Manathia — FGSL — position and weather

sailwx.info

Track history (hours):
 
Tides and Currents Weather Stations Pressure Air Temp Water Temp Dewpoint Dewpoint Depression Visibility Wind Speed Wind Dir Waves Ship Positions

F/V Manathia

Last reported at 2017-Nov-17 15:58 UTC. Time now 2017-Nov-21 12:17 UTC.
Position N 47°48' W 004°17'.

Length 16 m.

Type: Fishing. MMSI: 228258000.

Date/timePositionNaut miles runAvg speedWind from/ knotsBaromVisibWave heightAir tempDewpointWater temp
2017-Nov-17 15:58N 47°48' W 004°17'0 0.0
2017-Nov-17 15:26N 47°48' W 004°17'0 0.0
2017-Nov-17 15:00N 47°48' W 004°17'1 0.6
2017-Nov-17 13:58N 47°47' W 004°17'4 8.4
2017-Nov-17 13:30N 47°45' W 004°22'7 8.8
2017-Nov-17 12:44N 47°39' W 004°28'6 3.5
2017-Nov-17 11:07N 47°39' W 004°36'1 3.6
2017-Nov-17 10:44N 47°39' W 004°38'1 3.8
2017-Nov-17 10:27N 47°38' W 004°40'1 2.0
2017-Nov-17 09:50N 47°37' W 004°41'1 3.4
2017-Nov-17 09:29N 47°38' W 004°41'1 2.4
2017-Nov-17 09:00N 47°37' W 004°40'1 2.8
2017-Nov-17 08:28N 47°37' W 004°38'2 3.6
2017-Nov-17 08:00N 47°36' W 004°36'2 3.6
2017-Nov-17 07:30N 47°36' W 004°33'2 3.5
2017-Nov-17 06:58N 47°36' W 004°31'3 1.9
2017-Nov-17 05:21N 47°35' W 004°35'4 3.3
2017-Nov-17 04:09N 47°32' W 004°39'1 3.3
2017-Nov-17 03:59N 47°32' W 004°40'2 3.4
2017-Nov-17 03:26N 47°31' W 004°42'3 3.4
2017-Nov-17 02:26N 47°28' W 004°45'1 2.3
2017-Nov-17 02:00N 47°27' W 004°44'2 3.3
2017-Nov-17 01:20N 47°27' W 004°41'1 3.2
2017-Nov-17 00:55N 47°27' W 004°39'1 3.2
2017-Nov-17 00:28N 47°27' W 004°37'2 3.0
2017-Nov-16 23:40N 47°28' W 004°34'1 3.4
2017-Nov-16 23:22N 47°29' W 004°33'1 3.3
2017-Nov-16 23:00N 47°30' W 004°32'2 3.3
2017-Nov-16 22:29N 47°31' W 004°30'2 3.3
2017-Nov-16 21:45N 47°33' W 004°29'8 3.1
2017-Nov-16 19:07N 47°37' W 004°40'11 3.3
2017-Nov-16 15:41N 47°41' W 004°56'3 3.5
2017-Nov-16 14:48N 47°43' W 004°59'1 3.8
2017-Nov-16 14:26N 47°44' W 004°60'2 3.7
2017-Nov-16 13:59N 47°46' W 005°01'1 1.9
2017-Nov-16 13:30N 47°47' W 005°01'2 3.4
2017-Nov-16 13:00N 47°46' W 004°58'2 3.5
2017-Nov-16 12:30N 47°46' W 004°56'2 3.5
2017-Nov-16 12:00N 47°46' W 004°53'2 3.4
2017-Nov-16 11:30N 47°46' W 004°51'2 3.2
2017-Nov-16 11:00N 47°46' W 004°53'2 3.7
2017-Nov-16 10:24N 47°46' W 004°56'1 2.3
2017-Nov-16 10:00N 47°45' W 004°57'2 3.6
2017-Nov-16 09:30N 47°44' W 004°54'2 3.6
2017-Nov-16 09:00N 47°44' W 004°52'2 3.7
2017-Nov-16 08:30N 47°43' W 004°49'2 3.5
2017-Nov-16 08:00N 47°42' W 004°47'2 3.6
2017-Nov-16 07:31N 47°43' W 004°44'2 3.8
2017-Nov-16 06:59N 47°44' W 004°42'4 6.9
2017-Nov-16 06:28N 47°44' W 004°36'4 8.6
2017-Nov-16 06:00N 47°44' W 004°30'4 8.5
2017-Nov-16 05:30N 47°45' W 004°24'4 8.4
2017-Nov-16 05:00N 47°45' W 004°18'2 0.2
2017-Nov-15 18:18N 47°48' W 004°17'2 7.7
2017-Nov-15 17:59N 47°45' W 004°17'5 8.6
2017-Nov-15 17:27N 47°42' W 004°12'4 8.4
2017-Nov-15 16:57N 47°40' W 004°07'4 8.5
2017-Nov-15 16:30N 47°37' W 004°02'4 8.0
2017-Nov-15 16:00N 47°35' W 003°57'3 5.0
2017-Nov-15 15:30N 47°34' W 003°54'1 1.3
2017-Nov-15 14:54N 47°34' W 003°55'1 1.4
2017-Nov-15 14:27N 47°34' W 003°54'1 3.4
2017-Nov-15 14:00N 47°33' W 003°53'2 3.4
2017-Nov-15 13:30N 47°32' W 003°51'2 3.4
2017-Nov-15 13:00N 47°31' W 003°49'1 1.5
2017-Nov-15 12:30N 47°30' W 003°49'1 2.6
2017-Nov-15 11:59N 47°29' W 003°50'2 3.4
2017-Nov-15 11:21N 47°30' W 003°53'1 3.7
2017-Nov-15 11:00N 47°30' W 003°55'1 1.5
2017-Nov-15 10:30N 47°31' W 003°56'2 3.4
2017-Nov-15 10:00N 47°30' W 003°53'2 3.4
2017-Nov-15 09:30N 47°30' W 003°51'2 3.6
2017-Nov-15 09:00N 47°29' W 003°48'2 5.0
2017-Nov-15 08:30N 47°29' W 003°45'1 2.9
2017-Nov-15 08:00N 47°28' W 003°46'2 3.7
2017-Nov-15 07:30N 47°28' W 003°49'2 3.6
2017-Nov-15 06:59N 47°28' W 003°52'4 3.3
2017-Nov-15 05:46N 47°31' W 003°57'1 3.2
2017-Nov-15 05:30N 47°31' W 003°56'2 3.6
2017-Nov-15 05:00N 47°30' W 003°53'2 3.2
2017-Nov-15 04:30N 47°29' W 003°51'2 3.4
2017-Nov-15 04:00N 47°28' W 003°53'2 3.6
2017-Nov-15 03:30N 47°28' W 003°56'2 3.7
2017-Nov-15 03:00N 47°28' W 003°59'3 3.7
2017-Nov-15 02:18N 47°28' W 004°03'2 4.1
2017-Nov-15 01:46N 47°28' W 004°06'1 2.8
2017-Nov-15 01:28N 47°28' W 004°07'3 2.3
2017-Nov-15 00:08N 47°29' W 004°11'1 3.6
2017-Nov-14 23:59N 47°30' W 004°11'3 3.3
2017-Nov-14 23:10N 47°30' W 004°07'4 3.4
2017-Nov-14 21:59N 47°31' W 004°01'2 3.5
2017-Nov-14 21:30N 47°31' W 003°59'2 3.8
2017-Nov-14 21:00N 47°30' W 003°56'1 3.0
2017-Nov-14 20:30N 47°30' W 003°54'2 1.7
2017-Nov-14 19:16N 47°31' W 003°57'1 3.6
2017-Nov-14 19:00N 47°31' W 003°55'2 3.7
2017-Nov-14 18:27N 47°29' W 003°53'2 3.6
2017-Nov-14 18:00N 47°29' W 003°51'2 3.6
2017-Nov-14 17:30N 47°29' W 003°48'2 3.9
2017-Nov-14 17:00N 47°29' W 003°45'1 2.4
2017-Nov-14 16:30N 47°28' W 003°46'4 3.0
2017-Nov-14 15:16N 47°31' W 003°50'1 3.8
2017-Nov-14 14:54N 47°32' W 003°51'3 2.6
2017-Nov-14 13:34N 47°34' W 003°55'0 3.3
2017-Nov-14 13:30N 47°34' W 003°54'1 2.4
2017-Nov-14 13:00N 47°33' W 003°54'1 2.4
2017-Nov-14 12:28N 47°34' W 003°55'16 5.7
2017-Nov-14 09:40N 47°43' W 004°14'3 8.1
2017-Nov-14 09:18N 47°45' W 004°17'  
2017-Nov-10 14:12N 47°47' W 004°18'2 8.2
2017-Nov-10 14:00N 47°46' W 004°20'4 7.6
2017-Nov-10 13:29N 47°43' W 004°25'11 4.5
2017-Nov-10 11:00N 47°38' W 004°40'1 2.2
2017-Nov-10 10:30N 47°37' W 004°40'1 1.7
2017-Nov-10 09:59N 47°38' W 004°41'1 2.5
2017-Nov-10 09:29N 47°38' W 004°40'2 3.1
2017-Nov-10 09:00N 47°37' W 004°40'1 2.6
2017-Nov-10 08:30N 47°38' W 004°41'1 1.8
2017-Nov-10 07:59N 47°38' W 004°40'2 3.2
2017-Nov-10 07:29N 47°36' W 004°40'3 5.8
2017-Nov-10 07:00N 47°34' W 004°39'7 3.2
2017-Nov-10 04:43N 47°27' W 004°42'2 0.4
2017-Nov-09 23:32N 47°26' W 004°40'1 3.8
2017-Nov-09 23:14N 47°26' W 004°39'8 2.6
2017-Nov-09 20:13N 47°34' W 004°37'2 3.4
2017-Nov-09 19:39N 47°35' W 004°34'2 3.3
2017-Nov-09 19:12N 47°35' W 004°32'6 2.9
2017-Nov-09 17:04N 47°39' W 004°40'0 1.0
2017-Nov-09 17:00N 47°38' W 004°40'2 2.1
2017-Nov-09 16:15N 47°37' W 004°41'1 3.3
2017-Nov-09 15:51N 47°38' W 004°41'2 2.5
2017-Nov-09 15:13N 47°37' W 004°40'1 2.6
2017-Nov-09 14:56N 47°37' W 004°41'1 3.2
2017-Nov-09 14:28N 47°39' W 004°40'2 1.8
2017-Nov-09 13:34N 47°37' W 004°41'1 3.5
2017-Nov-09 13:18N 47°38' W 004°41'1 2.8
2017-Nov-09 13:00N 47°39' W 004°40'1 1.9
2017-Nov-09 12:14N 47°37' W 004°41'1 3.7
2017-Nov-09 12:00N 47°38' W 004°41'1 1.8
2017-Nov-09 11:28N 47°38' W 004°40'1 2.0
2017-Nov-09 10:56N 47°37' W 004°41'2 3.7
2017-Nov-09 10:29N 47°39' W 004°40'2 2.2
2017-Nov-09 09:46N 47°37' W 004°40'1 2.7
2017-Nov-09 09:23N 47°37' W 004°39'1 3.3
2017-Nov-09 09:00N 47°36' W 004°37'3 3.3
2017-Nov-09 08:06N 47°36' W 004°33'1 3.4
2017-Nov-09 07:50N 47°36' W 004°32'1 2.1
2017-Nov-09 07:30N 47°36' W 004°31'2 3.0
2017-Nov-09 06:56N 47°36' W 004°28'0 0.6
2017-Nov-09 06:30N 47°36' W 004°28'2 4.0
2017-Nov-09 06:00N 47°38' W 004°26'3 5.8
2017-Nov-09 05:28N 47°40' W 004°23'3 5.9
2017-Nov-09 05:00N 47°42' W 004°21'3 6.1
2017-Nov-09 04:30N 47°45' W 004°19'2 0.2
2017-Nov-08 18:56N 47°47' W 004°18'4 8.4
2017-Nov-08 18:30N 47°44' W 004°20'4 8.5
2017-Nov-08 17:59N 47°40' W 004°23'9 3.2
2017-Nov-08 15:18N 47°35' W 004°34'1 3.3
2017-Nov-08 14:55N 47°35' W 004°32'1 3.3
2017-Nov-08 14:30N 47°36' W 004°30'2 3.4
2017-Nov-08 13:59N 47°37' W 004°29'8 2.3
2017-Nov-08 10:38N 47°38' W 004°40'1 3.5
2017-Nov-08 10:30N 47°38' W 004°39'2 3.0
2017-Nov-08 09:57N 47°38' W 004°37'2 3.1
2017-Nov-08 09:27N 47°38' W 004°35'1 3.0
2017-Nov-08 08:58N 47°37' W 004°33'1 2.9
2017-Nov-08 08:29N 47°37' W 004°31'2 3.3
2017-Nov-08 07:46N 47°38' W 004°27'1 3.0
2017-Nov-08 07:30N 47°38' W 004°26'2 2.9
2017-Nov-08 06:58N 47°38' W 004°24'1 2.7
2017-Nov-08 06:28N 47°37' W 004°22'1 1.2
2017-Nov-08 06:00N 47°38' W 004°23'2 3.9
2017-Nov-08 05:30N 47°40' W 004°22'3 6.0
2017-Nov-08 05:00N 47°42' W 004°20'3 5.9
2017-Nov-08 04:30N 47°45' W 004°19'  
Track history (hours):
 
Tides and Currents Weather Stations Pressure Air Temp Water Temp Dewpoint Dewpoint Depression Visibility Wind Speed Wind Dir Waves Ship Positions

F/V Manathia

Last reported at 2017-Nov-17 15:58 UTC. Time now 2017-Nov-21 12:17 UTC.
Position N 47°48' W 004°17'.

Length 16 m.

Type: Fishing. MMSI: 228258000.

Date/timePositionNaut miles runAvg speedWind from/ knotsBaromVisibWave heightAir tempDewpointWater temp
2017-Nov-17 15:58N 47°48' W 004°17'0 0.0
2017-Nov-17 15:26N 47°48' W 004°17'0 0.0
2017-Nov-17 15:00N 47°48' W 004°17'1 0.6
2017-Nov-17 13:58N 47°47' W 004°17'4 8.4
2017-Nov-17 13:30N 47°45' W 004°22'7 8.8
2017-Nov-17 12:44N 47°39' W 004°28'6 3.5
2017-Nov-17 11:07N 47°39' W 004°36'1 3.6
2017-Nov-17 10:44N 47°39' W 004°38'1 3.8
2017-Nov-17 10:27N 47°38' W 004°40'1 2.0
2017-Nov-17 09:50N 47°37' W 004°41'1 3.4
2017-Nov-17 09:29N 47°38' W 004°41'1 2.4
2017-Nov-17 09:00N 47°37' W 004°40'1 2.8
2017-Nov-17 08:28N 47°37' W 004°38'2 3.6
2017-Nov-17 08:00N 47°36' W 004°36'2 3.6
2017-Nov-17 07:30N 47°36' W 004°33'2 3.5
2017-Nov-17 06:58N 47°36' W 004°31'3 1.9
2017-Nov-17 05:21N 47°35' W 004°35'4 3.3
2017-Nov-17 04:09N 47°32' W 004°39'1 3.3
2017-Nov-17 03:59N 47°32' W 004°40'2 3.4
2017-Nov-17 03:26N 47°31' W 004°42'3 3.4
2017-Nov-17 02:26N 47°28' W 004°45'1 2.3
2017-Nov-17 02:00N 47°27' W 004°44'2 3.3
2017-Nov-17 01:20N 47°27' W 004°41'1 3.2
2017-Nov-17 00:55N 47°27' W 004°39'1 3.2
2017-Nov-17 00:28N 47°27' W 004°37'2 3.0
2017-Nov-16 23:40N 47°28' W 004°34'1 3.4
2017-Nov-16 23:22N 47°29' W 004°33'1 3.3
2017-Nov-16 23:00N 47°30' W 004°32'2 3.3
2017-Nov-16 22:29N 47°31' W 004°30'2 3.3
2017-Nov-16 21:45N 47°33' W 004°29'8 3.1
2017-Nov-16 19:07N 47°37' W 004°40'11 3.3
2017-Nov-16 15:41N 47°41' W 004°56'3 3.5
2017-Nov-16 14:48N 47°43' W 004°59'1 3.8
2017-Nov-16 14:26N 47°44' W 004°60'2 3.7
2017-Nov-16 13:59N 47°46' W 005°01'1 1.9
2017-Nov-16 13:30N 47°47' W 005°01'2 3.4
2017-Nov-16 13:00N 47°46' W 004°58'2 3.5
2017-Nov-16 12:30N 47°46' W 004°56'2 3.5
2017-Nov-16 12:00N 47°46' W 004°53'2 3.4
2017-Nov-16 11:30N 47°46' W 004°51'2 3.2
2017-Nov-16 11:00N 47°46' W 004°53'2 3.7
2017-Nov-16 10:24N 47°46' W 004°56'1 2.3
2017-Nov-16 10:00N 47°45' W 004°57'2 3.6
2017-Nov-16 09:30N 47°44' W 004°54'2 3.6
2017-Nov-16 09:00N 47°44' W 004°52'2 3.7
2017-Nov-16 08:30N 47°43' W 004°49'2 3.5
2017-Nov-16 08:00N 47°42' W 004°47'2 3.6
2017-Nov-16 07:31N 47°43' W 004°44'2 3.8
2017-Nov-16 06:59N 47°44' W 004°42'4 6.9
2017-Nov-16 06:28N 47°44' W 004°36'4 8.6
2017-Nov-16 06:00N 47°44' W 004°30'4 8.5
2017-Nov-16 05:30N 47°45' W 004°24'4 8.4
2017-Nov-16 05:00N 47°45' W 004°18'2 0.2
2017-Nov-15 18:18N 47°48' W 004°17'2 7.7
2017-Nov-15 17:59N 47°45' W 004°17'5 8.6
2017-Nov-15 17:27N 47°42' W 004°12'4 8.4
2017-Nov-15 16:57N 47°40' W 004°07'4 8.5
2017-Nov-15 16:30N 47°37' W 004°02'4 8.0
2017-Nov-15 16:00N 47°35' W 003°57'3 5.0
2017-Nov-15 15:30N 47°34' W 003°54'1 1.3
2017-Nov-15 14:54N 47°34' W 003°55'1 1.4
2017-Nov-15 14:27N 47°34' W 003°54'1 3.4
2017-Nov-15 14:00N 47°33' W 003°53'2 3.4
2017-Nov-15 13:30N 47°32' W 003°51'2 3.4
2017-Nov-15 13:00N 47°31' W 003°49'1 1.5
2017-Nov-15 12:30N 47°30' W 003°49'1 2.6
2017-Nov-15 11:59N 47°29' W 003°50'2 3.4
2017-Nov-15 11:21N 47°30' W 003°53'1 3.7
2017-Nov-15 11:00N 47°30' W 003°55'1 1.5
2017-Nov-15 10:30N 47°31' W 003°56'2 3.4
2017-Nov-15 10:00N 47°30' W 003°53'2 3.4
2017-Nov-15 09:30N 47°30' W 003°51'2 3.6
2017-Nov-15 09:00N 47°29' W 003°48'2 5.0
2017-Nov-15 08:30N 47°29' W 003°45'1 2.9
2017-Nov-15 08:00N 47°28' W 003°46'2 3.7
2017-Nov-15 07:30N 47°28' W 003°49'2 3.6
2017-Nov-15 06:59N 47°28' W 003°52'4 3.3
2017-Nov-15 05:46N 47°31' W 003°57'1 3.2
2017-Nov-15 05:30N 47°31' W 003°56'2 3.6
2017-Nov-15 05:00N 47°30' W 003°53'2 3.2
2017-Nov-15 04:30N 47°29' W 003°51'2 3.4
2017-Nov-15 04:00N 47°28' W 003°53'2 3.6
2017-Nov-15 03:30N 47°28' W 003°56'2 3.7
2017-Nov-15 03:00N 47°28' W 003°59'3 3.7
2017-Nov-15 02:18N 47°28' W 004°03'2 4.1
2017-Nov-15 01:46N 47°28' W 004°06'1 2.8
2017-Nov-15 01:28N 47°28' W 004°07'3 2.3
2017-Nov-15 00:08N 47°29' W 004°11'1 3.6
2017-Nov-14 23:59N 47°30' W 004°11'3 3.3
2017-Nov-14 23:10N 47°30' W 004°07'4 3.4
2017-Nov-14 21:59N 47°31' W 004°01'2 3.5
2017-Nov-14 21:30N 47°31' W 003°59'2 3.8
2017-Nov-14 21:00N 47°30' W 003°56'1 3.0
2017-Nov-14 20:30N 47°30' W 003°54'2 1.7
2017-Nov-14 19:16N 47°31' W 003°57'1 3.6
2017-Nov-14 19:00N 47°31' W 003°55'2 3.7
2017-Nov-14 18:27N 47°29' W 003°53'2 3.6
2017-Nov-14 18:00N 47°29' W 003°51'2 3.6
2017-Nov-14 17:30N 47°29' W 003°48'2 3.9
2017-Nov-14 17:00N 47°29' W 003°45'1 2.4
2017-Nov-14 16:30N 47°28' W 003°46'4 3.0
2017-Nov-14 15:16N 47°31' W 003°50'1 3.8
2017-Nov-14 14:54N 47°32' W 003°51'3 2.6
2017-Nov-14 13:34N 47°34' W 003°55'0 3.3
2017-Nov-14 13:30N 47°34' W 003°54'1 2.4
2017-Nov-14 13:00N 47°33' W 003°54'1 2.4
2017-Nov-14 12:28N 47°34' W 003°55'16 5.7
2017-Nov-14 09:40N 47°43' W 004°14'3 8.1
2017-Nov-14 09:18N 47°45' W 004°17'  
2017-Nov-10 14:12N 47°47' W 004°18'2 8.2
2017-Nov-10 14:00N 47°46' W 004°20'4 7.6
2017-Nov-10 13:29N 47°43' W 004°25'11 4.5
2017-Nov-10 11:00N 47°38' W 004°40'1 2.2
2017-Nov-10 10:30N 47°37' W 004°40'1 1.7
2017-Nov-10 09:59N 47°38' W 004°41'1 2.5
2017-Nov-10 09:29N 47°38' W 004°40'2 3.1
2017-Nov-10 09:00N 47°37' W 004°40'1 2.6
2017-Nov-10 08:30N 47°38' W 004°41'1 1.8
2017-Nov-10 07:59N 47°38' W 004°40'2 3.2
2017-Nov-10 07:29N 47°36' W 004°40'3 5.8
2017-Nov-10 07:00N 47°34' W 004°39'7 3.2
2017-Nov-10 04:43N 47°27' W 004°42'2 0.4
2017-Nov-09 23:32N 47°26' W 004°40'1 3.8
2017-Nov-09 23:14N 47°26' W 004°39'8 2.6
2017-Nov-09 20:13N 47°34' W 004°37'2 3.4
2017-Nov-09 19:39N 47°35' W 004°34'2 3.3
2017-Nov-09 19:12N 47°35' W 004°32'6 2.9
2017-Nov-09 17:04N 47°39' W 004°40'0 1.0
2017-Nov-09 17:00N 47°38' W 004°40'2 2.1
2017-Nov-09 16:15N 47°37' W 004°41'1 3.3
2017-Nov-09 15:51N 47°38' W 004°41'2 2.5
2017-Nov-09 15:13N 47°37' W 004°40'1 2.6
2017-Nov-09 14:56N 47°37' W 004°41'1 3.2
2017-Nov-09 14:28N 47°39' W 004°40'2 1.8
2017-Nov-09 13:34N 47°37' W 004°41'1 3.5
2017-Nov-09 13:18N 47°38' W 004°41'1 2.8
2017-Nov-09 13:00N 47°39' W 004°40'1 1.9
2017-Nov-09 12:14N 47°37' W 004°41'1 3.7
2017-Nov-09 12:00N 47°38' W 004°41'1 1.8
2017-Nov-09 11:28N 47°38' W 004°40'1 2.0
2017-Nov-09 10:56N 47°37' W 004°41'2 3.7
2017-Nov-09 10:29N 47°39' W 004°40'2 2.2
2017-Nov-09 09:46N 47°37' W 004°40'1 2.7
2017-Nov-09 09:23N 47°37' W 004°39'1 3.3
2017-Nov-09 09:00N 47°36' W 004°37'3 3.3
2017-Nov-09 08:06N 47°36' W 004°33'1 3.4
2017-Nov-09 07:50N 47°36' W 004°32'1 2.1
2017-Nov-09 07:30N 47°36' W 004°31'2 3.0
2017-Nov-09 06:56N 47°36' W 004°28'0 0.6
2017-Nov-09 06:30N 47°36' W 004°28'2 4.0
2017-Nov-09 06:00N 47°38' W 004°26'3 5.8
2017-Nov-09 05:28N 47°40' W 004°23'3 5.9
2017-Nov-09 05:00N 47°42' W 004°21'3 6.1
2017-Nov-09 04:30N 47°45' W 004°19'2 0.2
2017-Nov-08 18:56N 47°47' W 004°18'4 8.4
2017-Nov-08 18:30N 47°44' W 004°20'4 8.5
2017-Nov-08 17:59N 47°40' W 004°23'9 3.2
2017-Nov-08 15:18N 47°35' W 004°34'1 3.3
2017-Nov-08 14:55N 47°35' W 004°32'1 3.3
2017-Nov-08 14:30N 47°36' W 004°30'2 3.4
2017-Nov-08 13:59N 47°37' W 004°29'8 2.3
2017-Nov-08 10:38N 47°38' W 004°40'1 3.5
2017-Nov-08 10:30N 47°38' W 004°39'2 3.0
2017-Nov-08 09:57N 47°38' W 004°37'2 3.1
2017-Nov-08 09:27N 47°38' W 004°35'1 3.0
2017-Nov-08 08:58N 47°37' W 004°33'1 2.9
2017-Nov-08 08:29N 47°37' W 004°31'2 3.3
2017-Nov-08 07:46N 47°38' W 004°27'1 3.0
2017-Nov-08 07:30N 47°38' W 004°26'2 2.9
2017-Nov-08 06:58N 47°38' W 004°24'1 2.7
2017-Nov-08 06:28N 47°37' W 004°22'1 1.2
2017-Nov-08 06:00N 47°38' W 004°23'2 3.9
2017-Nov-08 05:30N 47°40' W 004°22'3 6.0
2017-Nov-08 05:00N 47°42' W 004°20'3 5.9
2017-Nov-08 04:30N 47°45' W 004°19'  

Dump ship's entire track history